Řízení letového provozu České republiky  
Aktualizace dat:  01.03.2021 19:53:26 UTC English version
   METEO Zobrazení stránky:  01.03.2021 19:54:38 UTC  
vysvětlivky
METAR EDDB 011950Z 28003KT CAVOK 02/00 Q1035 NOSIG=
METAR EDDC 011950Z 04002KT CAVOK 02/01 Q1034 NOSIG=
METAR EDDE 011950Z 05003KT 0100 R28/0500N FG VV/// 02/02 Q1034 NOSIG=
METAR EDDF 011950Z 03011KT CAVOK 08/03 Q1031 NOSIG=
METAR EDDM 011950Z 06005KT CAVOK 03/M00 Q1030 NOSIG=
METAR EDDN 011950Z 10008KT CAVOK 07/M00 Q1031 NOSIG=
METAR EDDP 011950Z VRB02KT 7000 BKN005 02/01 Q1035 TEMPO 4000 BR BKN004=
METAR EDQM 011920Z VRB03KT CAVOK 02/01 Q1032=
METAR EPBY 011930Z 23007KT 4500 BR NSC 01/01 Q1034=
METAR EPGD 011930Z 26010KT CAVOK 02/01 Q1030=
METAR EPKK 011930Z 27005KT 9999 BKN019 03/M00 Q1035=
METAR EPKT 011930Z 26005KT 6000 OVC005 02/00 Q1035=
METAR EPLL 011930Z 25009KT 6000 OVC005 03/01 Q1034=
METAR EPPO 011930Z 21003KT 1300 0800N R28/P2000U FZFG BR NSC M01/M02 Q1035=
METAR EPRZ 011930Z 24002KT 9999 OVC020 03/01 Q1034=
METAR EPWA 011930Z 26008KT 6000 OVC006 03/02 Q1033 TEMPO 4000 BR=
METAR EPWR 011930Z VRB01KT 6000 NSC 02/01 Q1036=
METAR LHBP 011930Z VRB01KT CAVOK 02/M01 Q1035 NOSIG=
METAR LHSM 011915Z AUTO 29003KT 9000 NCD 04/M00 Q1034=
METAR LKBC 011930Z AUTO 02002KT 4700 BR NCD 01/00 Q1033=
METAR LKCV 011930Z 28005KT 3700 BR SCT008 00/M01 Q1035 NOSIG RMK GRN GRN=
METAR LKKB 011930Z 07003KT 3000 BR NSC 01/M00 Q1034 NOSIG RMK YLO YLO=
METAR LKKU NIL
METAR LKKV 011900Z VRB01KT CAVOK 01/00 Q1033 RMK REG QNH 1030=
METAR LKLN 011930Z AUTO VRB02KT 6000 NCD 03/03 Q1034=
METAR LKMT 011930Z 03004KT 9999 BKN017 02/01 Q1035 TEMPO FEW017 RMK REG QNH 1030=
METAR LKNA 011930Z 10003KT CAVOK 01/M01 Q1033 NOSIG RMK BLU BLU=
SPECI LKPD 011939Z 26001KT 4000 BR NSC M00/M00 Q1035 RMK GRN=
METAR LKPJ 011930Z AUTO 35004KT CAVOK 02/M00 Q1035=
METAR LKPR 011930Z VRB02KT 2500 0800SE R24/P2000N R30/1200U BR BCFG FEW006 00/M00 Q1034 NOSIG RMK REG QNH 1030=
METAR LKTB 011930Z 33003KT 9999 SCT011 02/M00 Q1035 NOSIG RMK REG QNH 1030=
METAR LKVO NIL
METAR LOWI 011920Z AUTO VRB02KT 9999 NCD 04/M03 Q1030=
METAR LOWL 011920Z AUTO 10006KT 9999 NCD 06/03 Q1033 NOSIG=
METAR LOWS 011920Z 17004KT CAVOK 04/01 Q1030 NOSIG=
METAR LOWW 011920Z 34004KT CAVOK 03/01 Q1035 NOSIG=
METAR LZIB 011930Z VRB02KT CAVOK 05/01 Q1034=
METAR LZKZ 011930Z 31005KT CAVOK 01/M02 Q1034=
METAR LZMC 011900Z 09002KT CAVOK 02/M00 Q1035=
METAR LZPP 011930Z VRB01KT CAVOK 00/M02 Q1034=
METAR LZSL 011900Z 33002KT CAVOK 04/M00 Q1033=
METAR LZTT 011930Z VRB02KT CAVOK M03/M04 Q1033=
METAR LZZI 011930Z 16003KT CAVOK 02/M01 Q1034=